Flight Track Log - Related Links

Times and Time Zones

All times are in EDT time to prevent confusion due to time zone crossing. See the SUB1342 flight status page for this flight to view local times or setup timezone preferences in your user account.

Time Position Orientation Groundspeed Altitude Reporting Facility
EDT Latitude Longitude Course Direction KTS MPH feet Rate Location/Type
Fri 06:14:59 AM 39.0500 -84.6667 360° North 142 163 1,200  Level Cincinnati TRACON
Fri 06:15:35 AM 39.0833 -84.6667 360° North 162 186 1,800 1,176 Climbing Cincinnati TRACON
Fri 06:16:41 AM 39.1333 -84.7000 333° Northwest 161 185 3,200 1,190 Climbing Cincinnati TRACON
Fri 06:17:41 AM 39.1667 -84.7333 322° Northwest 167 192 4,300 1,100 Climbing Cincinnati TRACON
Fri 06:18:41 AM 39.2167 -84.7500 346° North 192 221 5,400 850 Climbing Cincinnati TRACON
Fri 06:19:41 AM 39.2667 -84.7667 346° North 207 238 6,000 700 Climbing Cincinnati TRACON
Fri 06:20:41 AM 39.3333 -84.7833 349° North 226 260 6,800 910 Climbing Cincinnati TRACON
Fri 06:22:06 AM 39.3953 -84.8381 326° Northwest 204 235 8,200 986 Climbing Indianapolis Center
Fri 06:23:07 AM 39.4436 -84.8675 335° Northwest 195 224 9,200 934 Climbing Indianapolis Center
Fri 06:24:08 AM 39.4861 -84.9028 327° Northwest 196 226 10,100 992 Climbing Indianapolis Center
Fri 06:25:08 AM 39.5136 -84.9719 297° West 185 213 11,200 1,041 Climbing Indianapolis Center
Fri 06:26:09 AM 39.5283 -85.0308 288° West 175 201 12,200 934 Climbing Indianapolis Center
Fri 06:27:10 AM 39.5725 -85.0722 324° Northwest 186 214 13,100 738 Climbing Indianapolis Center
Fri 06:28:11 AM 39.6264 -85.1022 337° Northwest 198 228 13,700 496 Climbing Indianapolis Center
Fri 06:29:11 AM 39.6892 -85.1228 346° North 218 251 14,100 595 Climbing Indianapolis Center
Fri 06:30:12 AM 39.7558 -85.1403 349° North 235 270 14,900 443 Climbing Indianapolis Center
Fri 06:31:13 AM 39.7914 -85.2017 307° West 226 260 15,000 590 Climbing Indianapolis Center
Fri 06:32:14 AM 39.8239 -85.2653 304° West 217 250 16,100 885 Climbing Indianapolis Center
Fri 06:33:15 AM 39.8500 -85.3258 299° West 201 231 16,800 645 Climbing Indianapolis Center
Fri 06:34:15 AM 39.8733 -85.3858 297° West 194 223 17,400 595 Climbing Indianapolis Center
Fri 06:35:16 AM 39.8919 -85.4456 292° West 184 212 18,000 590 Climbing Indianapolis Center
Fri 06:36:17 AM 39.9147 -85.5031 297° West 182 209 18,600 590 Climbing Indianapolis Center
Fri 06:37:18 AM 39.9381 -85.5589 299° West 181 208 19,200 590 Climbing Indianapolis Center
Fri 06:38:19 AM 39.9636 -85.6153 301° West 181 208 19,800 393 Climbing Indianapolis Center
Fri 06:39:20 AM 39.9964 -85.6833 302° West 182 209 20,000 148 Climbing Indianapolis Center
Fri 06:40:21 AM 40.0244 -85.7514 298° West 207 238 20,100 50 Climbing Indianapolis Center
Fri 06:41:21 AM 40.0556 -85.8186 301° West 214 246 20,100 -50 Level Indianapolis Center
Fri 06:42:22 AM 40.0856 -85.8922 298° West 225 259 20,000 -49 Descending Indianapolis Center
Fri 06:43:23 AM 40.1164 -85.9675 298° West 231 266 20,000 -66 Level Indianapolis Center
Fri 06:43:53 AM 40.1300 -85.9972 301° West 235 270 19,900 67 Descending Chicago Center
Fri 06:44:53 AM 40.1597 -86.0736 297° West 236 272 20,100 50 Climbing Chicago Center
Fri 06:45:54 AM 40.1944 -86.1633 297° West 235 270 20,000 -50 Descending Chicago Center
Fri 06:46:54 AM 40.2275 -86.2381 300° West 236 272 20,000 -50 Level Chicago Center
Fri 06:47:55 AM 40.2611 -86.3117 301° West 237 273 19,900  Descending Chicago Center
Fri 06:48:56 AM 40.2942 -86.3861 300° West 237 273 20,000  Climbing Chicago Center
Fri 06:49:56 AM 40.3247 -86.4617 298° West 237 273 19,900  Descending Chicago Center
Fri 06:50:57 AM 40.3531 -86.5361 297° West 230 265 20,000 50 Climbing Chicago Center
Fri 06:51:57 AM 40.3842 -86.6111 299° West 233 268 20,000 50 Level Chicago Center
Fri 06:52:58 AM 40.4164 -86.6864 299° West 237 273 20,100  Climbing Chicago Center
Fri 06:53:59 AM 40.4444 -86.7633 296° West 236 272 20,000  Descending Chicago Center
Fri 06:54:59 AM 40.4697 -86.8408 293° West 233 268 20,100 50 Climbing Chicago Center
Fri 06:56:00 AM 40.5108 -86.9122 307° West 240 276 20,100 -49 Level Chicago Center
Fri 06:57:01 AM 40.5419 -86.9869 299° West 235 270 20,000 -50 Descending Chicago Center
Fri 06:58:01 AM 40.5586 -87.0664 285° West 228 262 20,000  Level Chicago Center
Fri 06:59:02 AM 40.5714 -87.1544 281° West 224 258 20,000 49 Level Chicago Center
Fri 07:00:03 AM 40.5819 -87.2350 280° West 222 255 20,100  Climbing Chicago Center
Fri 07:01:03 AM 40.5908 -87.3131 279° West 221 254 20,000 -50 Descending Chicago Center
Fri 07:02:04 AM 40.5994 -87.3919 278° West 220 253 20,000  Level Chicago Center
Fri 07:03:05 AM 40.6075 -87.4725 278° West 220 253 20,000  Level Chicago Center
Fri 07:04:05 AM 40.6231 -87.5536 284° West 223 257 20,000  Level Chicago Center
Fri 07:05:06 AM 40.6397 -87.6333 285° West 225 259 20,000 49 Level Chicago Center
Fri 07:06:07 AM 40.6511 -87.7153 280° West 225 259 20,100 49 Climbing Chicago Center
Fri 07:07:08 AM 40.6594 -87.7958 278° West 225 259 20,100 -49 Level Chicago Center
Fri 07:08:09 AM 40.6708 -87.8767 281° West 225 259 20,000  Descending Chicago Center
Fri 07:09:10 AM 40.6803 -87.9572 279° West 224 258 20,100  Climbing Chicago Center
Fri 07:10:00 AM 40.6673 -88.0234 268° West  Level FlightAware Approximate
Fri 07:10:10 AM 40.6894 -88.0375 279° West 223 257 20,000  Level Chicago Center
Fri 07:11:11 AM 40.7031 -88.1317 281° West 220 253 20,100  Climbing Chicago Center
Fri 07:12:12 AM 40.7167 -88.2108 283° West 220 253 20,000 -49 Descending Chicago Center
Fri 07:13:13 AM 40.7275 -88.2903 280° West 219 252 20,000 49 Level Chicago Center
Fri 07:14:14 AM 40.7367 -88.3692 279° West 219 252 20,100 49 Climbing Chicago Center
Fri 07:15:15 AM 40.7439 -88.4475 277° West 218 251 20,100 -49 Level Chicago Center
Fri 07:16:16 AM 40.7458 -88.5264 272° West 216 249 20,000 -49 Descending Chicago Center
Fri 07:17:00 AM 40.7253 -88.5762 279° West  Level FlightAware Approximate
Fri 07:17:17 AM 40.7333 -88.6017 258° West 212 244 20,000  Level Chicago Center
Fri 07:18:18 AM 40.7203 -88.6769 257° West 211 243 20,000 49 Level Chicago Center
Fri 07:19:19 AM 40.7025 -88.7472 252° West 206 237 20,100  Climbing Chicago Center
Fri 07:20:20 AM 40.6889 -88.8225 257° West 207 238 20,000 -49 Descending Chicago Center
Fri 07:21:21 AM 40.6717 -88.9022 254° West 208 239 20,000 49 Level Chicago Center
Fri 07:22:22 AM 40.6575 -88.9761 256° West 208 239 20,100 49 Climbing Chicago Center
Fri 07:23:24 AM 40.6611 -89.0522 274° West 210 242 20,100 -49 Level Chicago Center
Fri 07:24:25 AM 40.6811 -89.1275 289° West 214 246 20,000  Descending Chicago Center
Fri 07:25:26 AM 40.6928 -89.2033 281° West 214 246 20,100 49 Climbing Chicago Center
Fri 07:26:27 AM 40.7061 -89.2786 283° West 211 243 20,100  Level Chicago Center
Fri 07:27:28 AM 40.7189 -89.3536 283° West 211 243 20,100  Level Chicago Center
Fri 07:28:30 AM 40.7292 -89.4306 280° West 211 243 20,100  Level Chicago Center
Fri 07:29:31 AM 40.7392 -89.5236 278° West 212 244 20,100  Level Chicago Center
Fri 07:30:32 AM 40.7467 -89.5950 278° West 212 244 20,100  Level Chicago Center
Fri 07:31:33 AM 40.7600 -89.6725 283° West 213 245 20,100 -49 Level Chicago Center
Fri 07:32:35 AM 40.7744 -89.7494 284° West 217 250 20,000 -49 Descending Chicago Center
Fri 07:33:36 AM 40.7872 -89.8258 282° West 217 250 20,000  Level Chicago Center
Fri 07:34:37 AM 40.8028 -89.9178 283° West 217 250 20,000  Level Chicago Center
Fri 07:35:39 AM 40.8128 -89.9933 280° West 215 247 20,000  Level Chicago Center
Fri 07:36:40 AM 40.8192 -90.0719 276° West 216 249 20,000  Level Chicago Center
Fri 07:37:41 AM 40.8269 -90.1500 296° West 216 249 20,000  Level Chicago Center
Fri 07:38:00 AM 40.8543 -90.1666 296° West  Level FlightAware Approximate
Fri 07:38:43 AM 40.8386 -90.2300 281° West 219 252 20,000  Level Chicago Center
Fri 07:39:44 AM 40.8450 -90.3122 276° West 234 269 20,100  Climbing Chicago Center
Fri 07:40:46 AM 40.8533 -90.3958 278° West 231 266 20,000  Descending Chicago Center
Fri 07:41:47 AM 40.8628 -90.4811 278° West 232 267 20,100  Climbing Chicago Center
Fri 07:42:48 AM 40.8689 -90.5653 276° West 232 267 20,000 -49 Descending Chicago Center
Fri 07:43:50 AM 40.8803 -90.6519 280° West 237 273 20,000  Level Chicago Center
Fri 07:44:51 AM 40.8919 -90.7550 279° West 237 273 20,000  Level Chicago Center
Fri 07:45:53 AM 40.8992 -90.8403 276° West 236 272 20,000  Level Chicago Center
Fri 07:46:54 AM 40.9061 -90.9253 276° West 235 270 20,000 -49 Level Chicago Center
Fri 07:47:56 AM 40.9133 -91.0106 276° West 234 269 19,900 -49 Descending Chicago Center
Fri 07:48:57 AM 40.9181 -91.0947 274° West 233 268 19,900 49 Level Chicago Center
Fri 07:49:59 AM 40.9272 -91.1792 278° West 232 267 20,000 49 Climbing Chicago Center
Fri 07:51:00 AM 40.9369 -91.2636 279° West 232 267 20,000  Level Chicago Center
Fri 07:52:02 AM 40.9442 -91.3506 276° West 230 265 20,000  Level Chicago Center
Fri 07:53:03 AM 40.9489 -91.4347 274° West 231 266 20,000 49 Level Chicago Center
Fri 07:54:05 AM 40.9575 -91.5378 276° West 234 269 20,100  Climbing Chicago Center
Fri 07:55:07 AM 40.9586 -91.6239 271° West 235 270 20,000 -49 Descending Chicago Center
Fri 07:56:08 AM 40.9528 -91.7097 265° West 235 270 20,000  Level Chicago Center
Fri 07:57:10 AM 40.9639 -91.7964 280° West 243 280 20,000  Level Chicago Center
Fri 07:58:11 AM 40.9700 -91.8808 276° West 237 273 20,000  Level Chicago Center
Fri 07:59:13 AM 40.9797 -91.9669 279° West 237 273 20,000 48 Level Chicago Center
Fri 08:00:15 AM 40.9858 -92.0694 275° West 239 275 20,100  Climbing Chicago Center
Fri 08:01:16 AM 40.9928 -92.1531 276° West 235 270 20,000  Descending Chicago Center
Fri 08:02:18 AM 41.0025 -92.2367 279° West 234 269 20,100  Climbing Chicago Center
Fri 08:03:20 AM 41.0147 -92.3211 281° West 234 269 20,000 -48 Descending Chicago Center
Fri 08:04:22 AM 41.0269 -92.4047 281° West 235 270 20,000  Level Chicago Center
Fri 08:05:24 AM 41.0389 -92.5011 279° West 229 264 20,000  Level Chicago Center
Fri 08:06:25 AM 41.0531 -92.5836 283° West 230 265 20,000  Level Chicago Center
Fri 08:07:27 AM 41.0608 -92.6639 277° West 227 261 20,000 -97 Level Chicago Center
Fri 08:08:29 AM 41.0669 -92.7458 276° West 226 260 19,800 -435 Descending Chicago Center
Fri 08:09:31 AM 41.0772 -92.8350 279° West 242 278 19,100 -677 Descending Chicago Center
Fri 08:10:33 AM 41.0850 -92.9275 276° West 251 289 18,400 -927 Descending Chicago Center
Fri 08:11:34 AM 41.0878 -93.0428 272° West 263 303 17,200 -683 Descending Chicago Center
Fri 08:12:36 AM 41.0883 -93.1356 270° West 261 300 17,000 -145 Descending Chicago Center
Fri 08:13:38 AM 41.0917 -93.2233 273° West 246 283 16,900  Descending Chicago Center
Fri 08:14:40 AM 41.0983 -93.3106 276° West 245 282 17,000 48 Climbing Chicago Center
Fri 08:15:42 AM 41.1111 -93.3936 282° West 238 274 17,000  Level Chicago Center
Fri 08:16:13 AM 41.1164 -93.4472 277° West 238 274 17,000 -65 Level Minneapolis Center
Fri 08:17:15 AM 41.1247 -93.5314 278° West 236 272 16,900 -49 Descending Minneapolis Center
Fri 08:18:16 AM 41.1311 -93.6175 276° West 236 272 16,900  Level Minneapolis Center
Fri 08:19:17 AM 41.1336 -93.7186 272° West 235 270 16,900  Level Minneapolis Center
Fri 08:20:18 AM 41.1392 -93.8019 275° West 233 268 16,900  Level Minneapolis Center
Fri 08:21:20 AM 41.1469 -93.8867 277° West 233 268 16,900 49 Level Minneapolis Center
Fri 08:22:21 AM 41.1578 -93.9689 280° West 232 267 17,000 49 Climbing Minneapolis Center
Fri 08:23:23 AM 41.1669 -94.0544 278° West 232 267 17,000 -49 Level Minneapolis Center
Fri 08:24:24 AM 41.1744 -94.1394 277° West 233 268 16,900 -49 Descending Minneapolis Center
Fri 08:25:25 AM 41.1867 -94.2319 280° West 233 268 16,900  Level Minneapolis Center
Fri 08:26:27 AM 41.1992 -94.3181 281° West 235 270 16,900  Level Minneapolis Center
Fri 08:27:28 AM 41.2078 -94.4036 278° West 235 270 16,900 49 Level Minneapolis Center
Fri 08:28:30 AM 41.2197 -94.4883 281° West 235 270 17,000 98 Climbing Minneapolis Center
Fri 08:29:31 AM 41.2300 -94.5725 279° West 234 269 17,100 -341 Climbing Minneapolis Center
Fri 08:30:33 AM 41.2356 -94.6739 274° West 231 266 16,300 -976 Descending Minneapolis Center
Fri 08:31:34 AM 41.2394 -94.7644 273° West 238 274 15,100 -1,268 Descending Minneapolis Center
Fri 08:32:36 AM 41.2428 -94.8592 273° West 251 289 13,700 -1,514 Descending Minneapolis Center
Fri 08:33:21 AM 41.2592 -94.9361 286° West 258 297 12,400 -1,574 Descending Minneapolis Center
Fri 08:33:37 AM 41.2472 -94.9556 231° Southwest 256 295 12,100 -1,500 Descending Minneapolis Center
Fri 08:34:21 AM 41.2644 -95.0353 286° West 255 293 10,900 -1,548 Descending Minneapolis Center
Fri 08:34:39 AM 41.2531 -95.0472 218° Southwest 255 293 10,500 -1,726 Descending Minneapolis Center
Fri 08:35:34 AM 41.2678 -95.1375 282° West 238 274 8,800 -1,582 Descending Minneapolis Center
Fri 08:36:29 AM 41.2694 -95.2178 272° West 235 270 7,600 -1,147 Descending Minneapolis Center
Fri 08:36:42 AM 41.2603 -95.2228 202° Southwest 242 278 7,500 -1,400 Descending Minneapolis Center
Fri 08:37:29 AM 41.2714 -95.3036 280° West 232 267 6,200 -1,377 Descending Minneapolis Center
Fri 08:37:43 AM 41.2619 -95.3081 199° South 238 274 6,100 -873 Descending Minneapolis Center
Fri 08:38:24 AM 41.2706 -95.3814 279° West 230 265 5,400 -871 Descending Minneapolis Center
Fri 08:38:45 AM 41.2636 -95.3922 230° Southwest 233 268 5,200 -1,444 Descending Minneapolis Center
Fri 08:39:18 AM 41.2675 -95.4567 275° West 223 257 4,100 -1,770 Descending Minneapolis Center
Fri 08:39:46 AM 41.2600 -95.4906 254° West 228 262 3,400 -984 Descending Minneapolis Center
Fri 08:40:19 AM 41.2628 -95.5378 274° West 218 251 3,100 -387 Descending Minneapolis Center
Fri 08:40:48 AM 41.2594 -95.5669 261° West 218 251 3,000 -98 Descending Minneapolis Center
Fri 08:41:20 AM 41.2522 -95.6000 254° West 187 215 3,000  Level Minneapolis Center
Fri 08:41:50 AM 41.2239 -95.6050 188° South 206 237 3,000 100 Level Minneapolis Center
Fri 08:42:20 AM 41.1964 -95.6094 187° South 198 228 3,100 98 Climbing Minneapolis Center
Fri 08:42:51 AM 41.1700 -95.6064 175° South 199 229 3,100  Level Minneapolis Center
Fri 08:43:21 AM 41.1422 -95.6106 186° South 194 223 3,100  Level Minneapolis Center
Fri 08:43:53 AM 41.1214 -95.6283 213° Southwest 195 224 3,100 -200 Level Minneapolis Center
Fri 08:44:21 AM 41.1144 -95.6636 255° West 181 208 2,900  Descending Minneapolis Center
Fri 08:44:54 AM 41.1203 -95.6875 288° West 190 219 3,100 218 Climbing Minneapolis Center
Fri 08:45:16 AM 41.1303 -95.7117 299° West 160 184 3,100  Level Minneapolis Center
Fri 08:45:56 AM 41.1383 -95.7381 292° West 170 196 3,100 -98 Level Minneapolis Center
Fri 08:46:17 AM 41.1542 -95.7558 320° Northwest 138 159 3,000 -98 Descending Minneapolis Center
Fri 08:46:57 AM 41.1697 -95.7678 330° Northwest 152 175 3,000  Level Minneapolis Center
Fri 08:47:17 AM 41.1853 -95.7856 319° Northwest 139 160 3,000  Level Minneapolis Center
Fri 08:47:59 AM 41.2006 -95.7994 326° Northwest 144 166 3,000  Level Minneapolis Center
Fri 08:48:18 AM 41.2169 -95.8178 320° Northwest 140 161 3,000 -492 Level Minneapolis Center
Fri 08:49:00 AM 41.2386 -95.8353 329° Northwest 143 165 2,500 -800 Descending Minneapolis Center
Fri 08:49:18 AM 41.2481 -95.8472 316° Northwest 141 162 2,200 -871 Descending Minneapolis Center
Fri 08:50:02 AM 41.2719 -95.8664 329° Northwest 143 165 1,600 -623 Descending Minneapolis Center
Fri 08:51:04 AM 41.3011 -95.8942 324° Northwest 144 166 1,100 -484 Descending Minneapolis Center

Login

Don't have an account? Register now (free) for customized features, flight alerts, and more!